Terminal Aerodrome Forecast
Issued by NWS Denver/Boulder, CO

Home | Current Version | Previous Version | Text Only | Print | Product List | Glossary On
Versions: 1 2 3 4 5 6 7 8 9 10 11 12 13 14 15 16 17 18 19 20 21 22 23 24 25 26 27 28 29 30 31 32 33 34 35 36 37 38 39 40 41 42 43 44 45 46
000
FTUS45 KBOU 022202 AAI
TAFDEN
TAF AMD
KDEN 022202Z 0222/0324 10008KT P6SM VCSH SCT035 BKN040 OVC050
      TEMPO 0222/0301 5SM -SN BKN035
     FM030300 16008KT P6SM SCT050 BKN090
     FM030600 18007KT P6SM FEW090 SCT200
     FM031400 23005KT P6SM SCT200
     FM032100 30005KT P6SM SCT200=

USA.gov is the U.S. government's official web portal to all federal, state and local government web resources and services.